sensor_id;sensor_type;location;lat;lon;timestamp;temperature;humidity
21627;DHT22;10975;47.872;12.972;2022-10-28T00:00:30;10.00;99.90
21627;DHT22;10975;47.872;12.972;2022-10-28T00:03:00;10.00;99.90
21627;DHT22;10975;47.872;12.972;2022-10-28T00:05:27;10.00;99.90
21627;DHT22;10975;47.872;12.972;2022-10-28T00:07:54;10.10;99.90
21627;DHT22;10975;47.872;12.972;2022-10-28T00:10:21;10.10;99.90
21627;DHT22;10975;47.872;12.972;2022-10-28T00:12:48;10.10;99.90
21627;DHT22;10975;47.872;12.972;2022-10-28T00:15:15;10.10;99.90
21627;DHT22;10975;47.872;12.972;2022-10-28T00:17:41;10.10;99.90
21627;DHT22;10975;47.872;12.972;2022-10-28T00:20:08;10.10;99.90
21627;DHT22;10975;47.872;12.972;2022-10-28T00:22:35;10.10;99.90
21627;DHT22;10975;47.872;12.972;2022-10-28T00:25:02;10.10;99.90
21627;DHT22;10975;47.872;12.972;2022-10-28T00:27:29;10.20;99.90
21627;DHT22;10975;47.872;12.972;2022-10-28T00:29:56;10.20;99.90
21627;DHT22;10975;47.872;12.972;2022-10-28T00:32:23;10.20;99.90
21627;DHT22;10975;47.872;12.972;2022-10-28T00:34:50;10.20;99.90
21627;DHT22;10975;47.872;12.972;2022-10-28T00:37:16;10.20;99.90
21627;DHT22;10975;47.872;12.972;2022-10-28T00:39:43;10.20;99.90
21627;DHT22;10975;47.872;12.972;2022-10-28T00:42:10;10.20;99.90
21627;DHT22;10975;47.872;12.972;2022-10-28T00:47:12;10.30;99.90
21627;DHT22;10975;47.872;12.972;2022-10-28T00:49:40;10.30;99.90
21627;DHT22;10975;47.872;12.972;2022-10-28T00:52:12;10.30;99.90
21627;DHT22;10975;47.872;12.972;2022-10-28T00:54:40;10.30;99.90
21627;DHT22;10975;47.872;12.972;2022-10-28T00:57:09;10.40;99.90
21627;DHT22;10975;47.872;12.972;2022-10-28T00:59:38;10.40;99.90
21627;DHT22;10975;47.872;12.972;2022-10-28T01:02:06;10.40;99.90
21627;DHT22;10975;47.872;12.972;2022-10-28T01:04:33;10.40;99.90
21627;DHT22;10975;47.872;12.972;2022-10-28T01:07:00;10.40;99.90
21627;DHT22;10975;47.872;12.972;2022-10-28T01:09:26;10.30;99.90
21627;DHT22;10975;47.872;12.972;2022-10-28T01:17:24;10.30;99.90
21627;DHT22;10975;47.872;12.972;2022-10-28T01:22:12;10.30;99.90
21627;DHT22;10975;47.872;12.972;2022-10-28T01:24:55;10.30;99.90
21627;DHT22;10975;47.872;12.972;2022-10-28T01:43:15;10.10;99.90
21627;DHT22;10975;47.872;12.972;2022-10-28T01:46:06;10.00;99.90
21627;DHT22;10975;47.872;12.972;2022-10-28T01:48:35;10.00;99.90
21627;DHT22;10975;47.872;12.972;2022-10-28T01:53:38;9.90;99.90
21627;DHT22;10975;47.872;12.972;2022-10-28T01:56:09;9.90;99.90
21627;DHT22;10975;47.872;12.972;2022-10-28T01:58:37;9.90;99.90
21627;DHT22;10975;47.872;12.972;2022-10-28T02:01:06;9.90;99.90
21627;DHT22;10975;47.872;12.972;2022-10-28T02:03:33;9.90;99.90
21627;DHT22;10975;47.872;12.972;2022-10-28T02:06:01;9.80;99.90
21627;DHT22;10975;47.872;12.972;2022-10-28T02:16:26;9.80;99.90
21627;DHT22;10975;47.872;12.972;2022-10-28T02:24:10;9.80;99.90
21627;DHT22;10975;47.872;12.972;2022-10-28T02:26:40;9.80;99.90
21627;DHT22;10975;47.872;12.972;2022-10-28T02:29:16;9.70;99.90
21627;DHT22;10975;47.872;12.972;2022-10-28T02:31:49;9.70;99.90
21627;DHT22;10975;47.872;12.972;2022-10-28T02:34:20;9.70;99.90
21627;DHT22;10975;47.872;12.972;2022-10-28T02:36:49;9.70;99.90
21627;DHT22;10975;47.872;12.972;2022-10-28T02:39:18;9.70;99.90
21627;DHT22;10975;47.872;12.972;2022-10-28T02:41:50;9.70;99.90
21627;DHT22;10975;47.872;12.972;2022-10-28T02:44:19;9.70;99.90
21627;DHT22;10975;47.872;12.972;2022-10-28T02:46:48;9.70;99.90
21627;DHT22;10975;47.872;12.972;2022-10-28T02:49:15;9.70;99.90
21627;DHT22;10975;47.872;12.972;2022-10-28T02:51:47;9.60;99.90
21627;DHT22;10975;47.872;12.972;2022-10-28T02:54:31;9.60;99.90
21627;DHT22;10975;47.872;12.972;2022-10-28T02:57:03;9.70;99.90
21627;DHT22;10975;47.872;12.972;2022-10-28T02:59:31;9.60;99.90
21627;DHT22;10975;47.872;12.972;2022-10-28T03:01:58;9.60;99.90
21627;DHT22;10975;47.872;12.972;2022-10-28T03:04:25;9.60;99.90
21627;DHT22;10975;47.872;12.972;2022-10-28T03:06:51;9.60;99.90
21627;DHT22;10975;47.872;12.972;2022-10-28T03:09:18;9.60;99.90
21627;DHT22;10975;47.872;12.972;2022-10-28T03:11:45;9.60;99.90
21627;DHT22;10975;47.872;12.972;2022-10-28T03:14:11;9.60;99.90
21627;DHT22;10975;47.872;12.972;2022-10-28T03:16:40;9.60;99.90
21627;DHT22;10975;47.872;12.972;2022-10-28T03:19:07;9.60;99.90
21627;DHT22;10975;47.872;12.972;2022-10-28T03:21:34;9.60;99.90
21627;DHT22;10975;47.872;12.972;2022-10-28T03:24:00;9.60;99.90
21627;DHT22;10975;47.872;12.972;2022-10-28T03:26:27;9.50;99.90
21627;DHT22;10975;47.872;12.972;2022-10-28T03:28:54;9.50;99.90
21627;DHT22;10975;47.872;12.972;2022-10-28T03:31:20;9.60;99.90
21627;DHT22;10975;47.872;12.972;2022-10-28T03:33:47;9.50;99.90
21627;DHT22;10975;47.872;12.972;2022-10-28T03:36:14;9.50;99.90
21627;DHT22;10975;47.872;12.972;2022-10-28T03:38:40;9.50;99.90
21627;DHT22;10975;47.872;12.972;2022-10-28T03:41:07;9.50;99.90
21627;DHT22;10975;47.872;12.972;2022-10-28T03:43:34;9.40;99.90
21627;DHT22;10975;47.872;12.972;2022-10-28T03:46:01;9.40;99.90
21627;DHT22;10975;47.872;12.972;2022-10-28T03:48:27;9.40;99.90
21627;DHT22;10975;47.872;12.972;2022-10-28T03:50:54;9.40;99.90
21627;DHT22;10975;47.872;12.972;2022-10-28T03:53:21;9.40;99.90
21627;DHT22;10975;47.872;12.972;2022-10-28T03:55:53;9.30;99.90
21627;DHT22;10975;47.872;12.972;2022-10-28T03:58:20;9.30;99.90
21627;DHT22;10975;47.872;12.972;2022-10-28T04:00:47;9.30;99.90
21627;DHT22;10975;47.872;12.972;2022-10-28T04:03:15;9.30;99.90
21627;DHT22;10975;47.872;12.972;2022-10-28T04:05:42;9.30;99.90
21627;DHT22;10975;47.872;12.972;2022-10-28T04:08:09;9.30;99.90
21627;DHT22;10975;47.872;12.972;2022-10-28T04:10:36;9.30;99.90
21627;DHT22;10975;47.872;12.972;2022-10-28T04:13:03;9.30;99.90
21627;DHT22;10975;47.872;12.972;2022-10-28T04:15:30;9.30;99.90
21627;DHT22;10975;47.872;12.972;2022-10-28T04:17:57;9.20;99.90
21627;DHT22;10975;47.872;12.972;2022-10-28T04:20:24;9.20;99.90
21627;DHT22;10975;47.872;12.972;2022-10-28T04:22:51;9.20;99.90
21627;DHT22;10975;47.872;12.972;2022-10-28T04:25:24;9.20;99.90
21627;DHT22;10975;47.872;12.972;2022-10-28T04:27:50;9.20;99.90
21627;DHT22;10975;47.872;12.972;2022-10-28T04:30:18;9.20;99.90
21627;DHT22;10975;47.872;12.972;2022-10-28T04:32:44;9.20;99.90
21627;DHT22;10975;47.872;12.972;2022-10-28T04:35:11;9.20;99.90
21627;DHT22;10975;47.872;12.972;2022-10-28T04:37:39;9.20;99.90
21627;DHT22;10975;47.872;12.972;2022-10-28T04:40:06;9.20;99.90
21627;DHT22;10975;47.872;12.972;2022-10-28T04:42:33;9.10;99.90
21627;DHT22;10975;47.872;12.972;2022-10-28T04:45:00;9.10;99.90
21627;DHT22;10975;47.872;12.972;2022-10-28T04:47:27;9.00;99.90
21627;DHT22;10975;47.872;12.972;2022-10-28T04:49:53;9.00;99.90
21627;DHT22;10975;47.872;12.972;2022-10-28T04:52:20;9.00;99.90
21627;DHT22;10975;47.872;12.972;2022-10-28T04:54:47;9.00;99.90
21627;DHT22;10975;47.872;12.972;2022-10-28T04:57:13;8.90;99.90
21627;DHT22;10975;47.872;12.972;2022-10-28T04:59:40;8.90;99.90
21627;DHT22;10975;47.872;12.972;2022-10-28T05:02:07;8.90;99.90
21627;DHT22;10975;47.872;12.972;2022-10-28T05:04:34;8.90;99.90
21627;DHT22;10975;47.872;12.972;2022-10-28T05:07:01;8.90;99.90
21627;DHT22;10975;47.872;12.972;2022-10-28T05:09:27;8.90;99.90
21627;DHT22;10975;47.872;12.972;2022-10-28T05:11:54;8.90;99.90
21627;DHT22;10975;47.872;12.972;2022-10-28T05:14:21;8.90;99.90
21627;DHT22;10975;47.872;12.972;2022-10-28T05:16:48;8.90;99.90
21627;DHT22;10975;47.872;12.972;2022-10-28T05:19:14;8.90;99.90
21627;DHT22;10975;47.872;12.972;2022-10-28T05:21:41;8.80;99.90
21627;DHT22;10975;47.872;12.972;2022-10-28T05:24:08;8.80;99.90
21627;DHT22;10975;47.872;12.972;2022-10-28T05:26:35;8.80;99.90
21627;DHT22;10975;47.872;12.972;2022-10-28T05:29:02;8.80;99.90
21627;DHT22;10975;47.872;12.972;2022-10-28T05:31:28;8.80;99.90
21627;DHT22;10975;47.872;12.972;2022-10-28T05:33:55;8.80;99.90
21627;DHT22;10975;47.872;12.972;2022-10-28T05:36:22;8.70;99.90
21627;DHT22;10975;47.872;12.972;2022-10-28T05:38:48;8.70;99.90
21627;DHT22;10975;47.872;12.972;2022-10-28T05:41:15;8.70;99.90
21627;DHT22;10975;47.872;12.972;2022-10-28T05:43:42;8.70;99.90
21627;DHT22;10975;47.872;12.972;2022-10-28T05:46:08;8.60;99.90
21627;DHT22;10975;47.872;12.972;2022-10-28T05:48:35;8.70;99.90
21627;DHT22;10975;47.872;12.972;2022-10-28T05:51:02;8.60;99.90
21627;DHT22;10975;47.872;12.972;2022-10-28T05:53:29;8.60;99.90
21627;DHT22;10975;47.872;12.972;2022-10-28T05:55:56;8.60;99.90
21627;DHT22;10975;47.872;12.972;2022-10-28T05:58:22;8.60;99.90
21627;DHT22;10975;47.872;12.972;2022-10-28T06:00:49;8.60;99.90
21627;DHT22;10975;47.872;12.972;2022-10-28T06:03:16;8.60;99.90
21627;DHT22;10975;47.872;12.972;2022-10-28T06:05:43;8.60;99.90
21627;DHT22;10975;47.872;12.972;2022-10-28T06:08:11;8.60;99.90
21627;DHT22;10975;47.872;12.972;2022-10-28T06:10:38;8.60;99.90
21627;DHT22;10975;47.872;12.972;2022-10-28T06:13:04;8.70;99.90
21627;DHT22;10975;47.872;12.972;2022-10-28T06:15:31;8.60;99.90
21627;DHT22;10975;47.872;12.972;2022-10-28T06:17:58;8.70;99.90
21627;DHT22;10975;47.872;12.972;2022-10-28T06:20:24;8.70;99.90
21627;DHT22;10975;47.872;12.972;2022-10-28T06:22:52;8.70;99.90
21627;DHT22;10975;47.872;12.972;2022-10-28T06:25:20;8.70;99.90
21627;DHT22;10975;47.872;12.972;2022-10-28T06:27:57;8.70;99.90
21627;DHT22;10975;47.872;12.972;2022-10-28T06:30:24;8.80;99.90
21627;DHT22;10975;47.872;12.972;2022-10-28T06:32:52;8.80;99.90
21627;DHT22;10975;47.872;12.972;2022-10-28T06:35:21;8.80;99.90
21627;DHT22;10975;47.872;12.972;2022-10-28T06:37:52;8.90;99.90
21627;DHT22;10975;47.872;12.972;2022-10-28T06:40:19;8.90;99.90
21627;DHT22;10975;47.872;12.972;2022-10-28T06:42:45;9.00;99.90
21627;DHT22;10975;47.872;12.972;2022-10-28T06:45:12;9.00;99.90
21627;DHT22;10975;47.872;12.972;2022-10-28T06:47:39;9.00;99.90
21627;DHT22;10975;47.872;12.972;2022-10-28T06:50:07;9.10;99.90
21627;DHT22;10975;47.872;12.972;2022-10-28T06:52:34;9.20;99.90
21627;DHT22;10975;47.872;12.972;2022-10-28T06:55:00;9.30;99.90
21627;DHT22;10975;47.872;12.972;2022-10-28T06:57:27;9.40;99.90
21627;DHT22;10975;47.872;12.972;2022-10-28T06:59:54;9.40;99.90
21627;DHT22;10975;47.872;12.972;2022-10-28T07:02:21;9.50;99.90
21627;DHT22;10975;47.872;12.972;2022-10-28T07:04:48;9.50;99.90
21627;DHT22;10975;47.872;12.972;2022-10-28T07:07:15;9.70;99.90
21627;DHT22;10975;47.872;12.972;2022-10-28T07:09:42;9.70;99.90
21627;DHT22;10975;47.872;12.972;2022-10-28T07:12:09;9.70;99.90
21627;DHT22;10975;47.872;12.972;2022-10-28T07:14:35;9.80;99.90
21627;DHT22;10975;47.872;12.972;2022-10-28T07:17:02;9.90;99.90
21627;DHT22;10975;47.872;12.972;2022-10-28T07:19:29;10.00;99.90
21627;DHT22;10975;47.872;12.972;2022-10-28T07:21:56;10.10;99.90
21627;DHT22;10975;47.872;12.972;2022-10-28T07:24:22;10.20;99.90
21627;DHT22;10975;47.872;12.972;2022-10-28T07:26:49;10.30;99.90
21627;DHT22;10975;47.872;12.972;2022-10-28T07:29:20;10.40;99.90
21627;DHT22;10975;47.872;12.972;2022-10-28T07:31:47;10.50;99.90
21627;DHT22;10975;47.872;12.972;2022-10-28T07:34:14;10.60;99.90
21627;DHT22;10975;47.872;12.972;2022-10-28T07:36:41;10.60;99.90
21627;DHT22;10975;47.872;12.972;2022-10-28T07:39:08;10.70;99.90
21627;DHT22;10975;47.872;12.972;2022-10-28T07:41:35;10.80;99.90
21627;DHT22;10975;47.872;12.972;2022-10-28T07:44:02;10.90;99.90
21627;DHT22;10975;47.872;12.972;2022-10-28T07:46:29;11.10;99.90
21627;DHT22;10975;47.872;12.972;2022-10-28T07:48:56;11.20;99.90
21627;DHT22;10975;47.872;12.972;2022-10-28T07:51:22;11.30;99.90
21627;DHT22;10975;47.872;12.972;2022-10-28T07:53:49;11.40;99.90
21627;DHT22;10975;47.872;12.972;2022-10-28T07:56:16;11.50;99.90
21627;DHT22;10975;47.872;12.972;2022-10-28T07:58:43;11.60;99.90
21627;DHT22;10975;47.872;12.972;2022-10-28T08:01:11;11.80;99.90
21627;DHT22;10975;47.872;12.972;2022-10-28T08:03:38;11.80;99.90
21627;DHT22;10975;47.872;12.972;2022-10-28T08:06:06;12.00;99.90
21627;DHT22;10975;47.872;12.972;2022-10-28T08:08:33;12.10;99.90
21627;DHT22;10975;47.872;12.972;2022-10-28T08:11:07;12.20;99.90
21627;DHT22;10975;47.872;12.972;2022-10-28T08:13:34;12.30;99.90
21627;DHT22;10975;47.872;12.972;2022-10-28T08:16:06;12.40;99.90
21627;DHT22;10975;47.872;12.972;2022-10-28T08:18:34;12.50;99.90
21627;DHT22;10975;47.872;12.972;2022-10-28T08:21:01;12.60;99.90
21627;DHT22;10975;47.872;12.972;2022-10-28T08:23:28;12.70;99.90
21627;DHT22;10975;47.872;12.972;2022-10-28T08:25:55;12.80;99.90
21627;DHT22;10975;47.872;12.972;2022-10-28T08:28:21;12.80;99.90
21627;DHT22;10975;47.872;12.972;2022-10-28T08:30:49;12.90;99.90
21627;DHT22;10975;47.872;12.972;2022-10-28T08:33:33;12.90;99.90
21627;DHT22;10975;47.872;12.972;2022-10-28T08:36:00;13.00;99.90
21627;DHT22;10975;47.872;12.972;2022-10-28T08:38:26;13.20;99.90
21627;DHT22;10975;47.872;12.972;2022-10-28T08:40:57;13.20;99.90
21627;DHT22;10975;47.872;12.972;2022-10-28T08:43:26;13.30;99.90
21627;DHT22;10975;47.872;12.972;2022-10-28T08:48:44;13.50;99.90
21627;DHT22;10975;47.872;12.972;2022-10-28T08:51:21;13.60;99.90
21627;DHT22;10975;47.872;12.972;2022-10-28T08:54:01;13.60;99.90
21627;DHT22;10975;47.872;12.972;2022-10-28T08:56:34;13.80;99.90
21627;DHT22;10975;47.872;12.972;2022-10-28T08:59:03;13.90;99.90
21627;DHT22;10975;47.872;12.972;2022-10-28T09:01:41;14.00;99.90
21627;DHT22;10975;47.872;12.972;2022-10-28T09:04:12;14.10;99.90
21627;DHT22;10975;47.872;12.972;2022-10-28T09:06:41;14.20;99.90
21627;DHT22;10975;47.872;12.972;2022-10-28T09:09:11;14.20;99.90
21627;DHT22;10975;47.872;12.972;2022-10-28T09:14:25;14.30;99.90
21627;DHT22;10975;47.872;12.972;2022-10-28T09:16:57;14.40;99.90
21627;DHT22;10975;47.872;12.972;2022-10-28T09:22:06;14.60;99.90
21627;DHT22;10975;47.872;12.972;2022-10-28T09:24:40;14.60;99.90
21627;DHT22;10975;47.872;12.972;2022-10-28T09:30:17;14.80;99.90
21627;DHT22;10975;47.872;12.972;2022-10-28T09:32:55;14.90;99.90
21627;DHT22;10975;47.872;12.972;2022-10-28T09:35:23;15.00;99.90
21627;DHT22;10975;47.872;12.972;2022-10-28T09:37:52;15.10;99.90
21627;DHT22;10975;47.872;12.972;2022-10-28T09:40:21;15.10;99.90
21627;DHT22;10975;47.872;12.972;2022-10-28T09:42:55;15.20;99.90
21627;DHT22;10975;47.872;12.972;2022-10-28T09:45:25;15.30;99.90
21627;DHT22;10975;47.872;12.972;2022-10-28T09:47:57;15.30;99.90
21627;DHT22;10975;47.872;12.972;2022-10-28T09:50:27;15.40;99.90
21627;DHT22;10975;47.872;12.972;2022-10-28T09:55:21;15.50;99.90
21627;DHT22;10975;47.872;12.972;2022-10-28T09:57:48;15.50;99.90
21627;DHT22;10975;47.872;12.972;2022-10-28T10:00:16;15.50;99.90
21627;DHT22;10975;47.872;12.972;2022-10-28T10:02:43;15.50;99.90
21627;DHT22;10975;47.872;12.972;2022-10-28T10:05:16;15.50;99.90
21627;DHT22;10975;47.872;12.972;2022-10-28T10:08:05;15.60;99.90
21627;DHT22;10975;47.872;12.972;2022-10-28T10:10:35;15.70;99.90
21627;DHT22;10975;47.872;12.972;2022-10-28T10:13:09;15.80;99.90
21627;DHT22;10975;47.872;12.972;2022-10-28T10:15:38;15.90;99.90
21627;DHT22;10975;47.872;12.972;2022-10-28T10:18:10;15.90;99.90
21627;DHT22;10975;47.872;12.972;2022-10-28T10:20:44;16.00;99.90
21627;DHT22;10975;47.872;12.972;2022-10-28T10:23:21;16.00;99.90
21627;DHT22;10975;47.872;12.972;2022-10-28T10:26:07;16.10;99.90
21627;DHT22;10975;47.872;12.972;2022-10-28T10:28:44;16.20;99.90
21627;DHT22;10975;47.872;12.972;2022-10-28T10:31:16;16.10;99.90
21627;DHT22;10975;47.872;12.972;2022-10-28T10:33:43;16.20;99.90
21627;DHT22;10975;47.872;12.972;2022-10-28T10:36:14;16.30;99.90
21627;DHT22;10975;47.872;12.972;2022-10-28T10:38:46;16.40;99.90
21627;DHT22;10975;47.872;12.972;2022-10-28T10:43:58;16.40;99.90
21627;DHT22;10975;47.872;12.972;2022-10-28T10:46:25;16.50;99.90
21627;DHT22;10975;47.872;12.972;2022-10-28T10:49:10;16.50;99.90
21627;DHT22;10975;47.872;12.972;2022-10-28T10:51:38;16.60;99.90
21627;DHT22;10975;47.872;12.972;2022-10-28T10:54:11;16.60;99.90
21627;DHT22;10975;47.872;12.972;2022-10-28T10:56:39;16.70;99.90
21627;DHT22;10975;47.872;12.972;2022-10-28T10:59:15;16.70;99.90
21627;DHT22;10975;47.872;12.972;2022-10-28T11:01:42;16.70;99.90
21627;DHT22;10975;47.872;12.972;2022-10-28T11:04:14;16.80;99.90
21627;DHT22;10975;47.872;12.972;2022-10-28T11:06:41;16.90;99.90
21627;DHT22;10975;47.872;12.972;2022-10-28T11:09:32;16.90;99.90
21627;DHT22;10975;47.872;12.972;2022-10-28T11:11:56;17.00;99.90
21627;DHT22;10975;47.872;12.972;2022-10-28T11:14:23;17.00;99.90
21627;DHT22;10975;47.872;12.972;2022-10-28T11:16:54;17.00;99.90
21627;DHT22;10975;47.872;12.972;2022-10-28T11:19:32;17.20;99.90
21627;DHT22;10975;47.872;12.972;2022-10-28T11:27:14;17.40;99.90
21627;DHT22;10975;47.872;12.972;2022-10-28T11:29:44;17.40;99.90
21627;DHT22;10975;47.872;12.972;2022-10-28T11:35:28;17.60;99.90
21627;DHT22;10975;47.872;12.972;2022-10-28T11:43:22;17.70;99.90
21627;DHT22;10975;47.872;12.972;2022-10-28T11:48:55;17.80;99.90
21627;DHT22;10975;47.872;12.972;2022-10-28T11:57:08;17.80;99.90
21627;DHT22;10975;47.872;12.972;2022-10-28T12:17:32;18.10;99.90
21627;DHT22;10975;47.872;12.972;2022-10-28T12:20:08;18.10;99.90
21627;DHT22;10975;47.872;12.972;2022-10-28T12:22:47;18.00;99.90
21627;DHT22;10975;47.872;12.972;2022-10-28T12:25:16;18.10;99.90
21627;DHT22;10975;47.872;12.972;2022-10-28T12:27:44;18.10;99.90
21627;DHT22;10975;47.872;12.972;2022-10-28T12:32:38;18.30;99.90
21627;DHT22;10975;47.872;12.972;2022-10-28T12:37:38;18.20;99.90
21627;DHT22;10975;47.872;12.972;2022-10-28T12:42:44;18.20;99.90
21627;DHT22;10975;47.872;12.972;2022-10-28T12:45:14;18.20;99.90
21627;DHT22;10975;47.872;12.972;2022-10-28T12:47:45;18.30;99.90
21627;DHT22;10975;47.872;12.972;2022-10-28T12:50:28;18.30;99.90
21627;DHT22;10975;47.872;12.972;2022-10-28T12:55:36;18.40;99.90
21627;DHT22;10975;47.872;12.972;2022-10-28T13:00:34;18.50;99.90
21627;DHT22;10975;47.872;12.972;2022-10-28T13:03:06;18.50;99.90
21627;DHT22;10975;47.872;12.972;2022-10-28T13:08:15;18.60;99.90
21627;DHT22;10975;47.872;12.972;2022-10-28T13:15:53;18.70;99.90
21627;DHT22;10975;47.872;12.972;2022-10-28T13:26:26;18.70;99.90
21627;DHT22;10975;47.872;12.972;2022-10-28T13:28:55;18.70;99.90
21627;DHT22;10975;47.872;12.972;2022-10-28T13:31:23;18.60;99.90
21627;DHT22;10975;47.872;12.972;2022-10-28T13:34:01;18.60;99.90
21627;DHT22;10975;47.872;12.972;2022-10-28T13:36:28;18.50;99.90
21627;DHT22;10975;47.872;12.972;2022-10-28T13:38:57;18.50;99.90
21627;DHT22;10975;47.872;12.972;2022-10-28T13:41:37;18.40;99.90
21627;DHT22;10975;47.872;12.972;2022-10-28T13:49:33;18.40;99.90
21627;DHT22;10975;47.872;12.972;2022-10-28T13:52:24;18.40;99.90
21627;DHT22;10975;47.872;12.972;2022-10-28T13:54:53;18.40;99.90
21627;DHT22;10975;47.872;12.972;2022-10-28T13:57:29;18.40;99.90
21627;DHT22;10975;47.872;12.972;2022-10-28T13:59:58;18.30;99.90
21627;DHT22;10975;47.872;12.972;2022-10-28T14:02:28;18.30;99.90
21627;DHT22;10975;47.872;12.972;2022-10-28T14:05:06;18.30;99.90
21627;DHT22;10975;47.872;12.972;2022-10-28T14:07:34;18.30;99.90
21627;DHT22;10975;47.872;12.972;2022-10-28T14:10:21;18.30;99.90
21627;DHT22;10975;47.872;12.972;2022-10-28T14:15:34;18.30;99.90
21627;DHT22;10975;47.872;12.972;2022-10-28T14:20:53;18.30;99.90
21627;DHT22;10975;47.872;12.972;2022-10-28T14:44:16;18.30;99.90
21627;DHT22;10975;47.872;12.972;2022-10-28T14:46:57;18.30;99.90
21627;DHT22;10975;47.872;12.972;2022-10-28T14:49:28;18.30;99.90
21627;DHT22;10975;47.872;12.972;2022-10-28T14:51:55;18.20;99.90
21627;DHT22;10975;47.872;12.972;2022-10-28T14:54:28;18.10;99.90
21627;DHT22;10975;47.872;12.972;2022-10-28T14:57:06;18.10;99.90
21627;DHT22;10975;47.872;12.972;2022-10-28T14:59:42;18.00;99.90
21627;DHT22;10975;47.872;12.972;2022-10-28T15:02:19;17.90;99.90
21627;DHT22;10975;47.872;12.972;2022-10-28T15:04:56;17.80;99.90
21627;DHT22;10975;47.872;12.972;2022-10-28T15:07:25;17.80;99.90
21627;DHT22;10975;47.872;12.972;2022-10-28T15:09:52;17.70;99.90
21627;DHT22;10975;47.872;12.972;2022-10-28T15:12:20;17.70;99.90
21627;DHT22;10975;47.872;12.972;2022-10-28T15:14:51;17.70;99.90
21627;DHT22;10975;47.872;12.972;2022-10-28T15:17:20;17.60;99.90
21627;DHT22;10975;47.872;12.972;2022-10-28T15:19:57;17.60;99.90
21627;DHT22;10975;47.872;12.972;2022-10-28T15:22:28;17.60;99.90
21627;DHT22;10975;47.872;12.972;2022-10-28T15:24:57;17.50;99.90
21627;DHT22;10975;47.872;12.972;2022-10-28T15:27:26;17.40;99.90
21627;DHT22;10975;47.872;12.972;2022-10-28T15:29:53;17.40;99.90
21627;DHT22;10975;47.872;12.972;2022-10-28T15:34:48;17.30;99.90
21627;DHT22;10975;47.872;12.972;2022-10-28T15:37:15;17.20;99.90
21627;DHT22;10975;47.872;12.972;2022-10-28T15:39:43;17.20;99.90
21627;DHT22;10975;47.872;12.972;2022-10-28T15:45:00;17.10;99.90
21627;DHT22;10975;47.872;12.972;2022-10-28T15:47:31;17.10;99.90
21627;DHT22;10975;47.872;12.972;2022-10-28T15:55:27;17.00;99.90
21627;DHT22;10975;47.872;12.972;2022-10-28T16:00:55;16.90;99.90
21627;DHT22;10975;47.872;12.972;2022-10-28T16:05:55;16.80;99.90
21627;DHT22;10975;47.872;12.972;2022-10-28T16:08:23;16.70;99.90
21627;DHT22;10975;47.872;12.972;2022-10-28T16:10:54;16.70;99.90
21627;DHT22;10975;47.872;12.972;2022-10-28T16:13:29;16.60;99.90
21627;DHT22;10975;47.872;12.972;2022-10-28T16:16:02;16.60;99.90
21627;DHT22;10975;47.872;12.972;2022-10-28T16:18:30;16.60;99.90
21627;DHT22;10975;47.872;12.972;2022-10-28T16:20:57;16.50;99.90
21627;DHT22;10975;47.872;12.972;2022-10-28T16:23:27;16.50;99.90
21627;DHT22;10975;47.872;12.972;2022-10-28T16:25:55;16.50;99.90
21627;DHT22;10975;47.872;12.972;2022-10-28T16:28:23;16.50;99.90
21627;DHT22;10975;47.872;12.972;2022-10-28T16:30:51;16.50;99.90
21627;DHT22;10975;47.872;12.972;2022-10-28T16:33:19;16.50;99.90
21627;DHT22;10975;47.872;12.972;2022-10-28T16:35:50;16.40;99.90
21627;DHT22;10975;47.872;12.972;2022-10-28T16:38:16;16.40;99.90
21627;DHT22;10975;47.872;12.972;2022-10-28T16:40:43;16.40;99.90
21627;DHT22;10975;47.872;12.972;2022-10-28T16:43:17;16.30;99.90
21627;DHT22;10975;47.872;12.972;2022-10-28T16:45:46;16.30;99.90
21627;DHT22;10975;47.872;12.972;2022-10-28T16:48:13;16.20;99.90
21627;DHT22;10975;47.872;12.972;2022-10-28T16:50:46;16.20;99.90
21627;DHT22;10975;47.872;12.972;2022-10-28T16:53:14;16.10;99.90
21627;DHT22;10975;47.872;12.972;2022-10-28T16:55:41;16.10;99.90
21627;DHT22;10975;47.872;12.972;2022-10-28T16:58:08;16.00;99.90
21627;DHT22;10975;47.872;12.972;2022-10-28T17:00:35;15.90;99.90
21627;DHT22;10975;47.872;12.972;2022-10-28T17:03:02;15.90;99.90
21627;DHT22;10975;47.872;12.972;2022-10-28T17:05:29;15.80;99.90
21627;DHT22;10975;47.872;12.972;2022-10-28T17:07:56;15.80;99.90
21627;DHT22;10975;47.872;12.972;2022-10-28T17:10:24;15.70;99.90
21627;DHT22;10975;47.872;12.972;2022-10-28T17:12:51;15.70;99.90
21627;DHT22;10975;47.872;12.972;2022-10-28T17:15:19;15.60;99.90
21627;DHT22;10975;47.872;12.972;2022-10-28T17:17:49;15.50;99.90
21627;DHT22;10975;47.872;12.972;2022-10-28T17:20:16;15.50;99.90
21627;DHT22;10975;47.872;12.972;2022-10-28T17:22:43;15.40;99.90
21627;DHT22;10975;47.872;12.972;2022-10-28T17:25:10;15.40;99.90
21627;DHT22;10975;47.872;12.972;2022-10-28T17:27:37;15.30;99.90
21627;DHT22;10975;47.872;12.972;2022-10-28T17:30:05;15.30;99.90
21627;DHT22;10975;47.872;12.972;2022-10-28T17:32:32;15.20;99.90
21627;DHT22;10975;47.872;12.972;2022-10-28T17:34:59;15.20;99.90
21627;DHT22;10975;47.872;12.972;2022-10-28T17:37:26;15.20;99.90
21627;DHT22;10975;47.872;12.972;2022-10-28T17:39:52;15.10;99.90
21627;DHT22;10975;47.872;12.972;2022-10-28T17:42:19;15.00;99.90
21627;DHT22;10975;47.872;12.972;2022-10-28T17:44:46;14.90;99.90
21627;DHT22;10975;47.872;12.972;2022-10-28T17:47:13;14.90;99.90
21627;DHT22;10975;47.872;12.972;2022-10-28T17:49:40;14.80;99.90
21627;DHT22;10975;47.872;12.972;2022-10-28T17:52:06;14.80;99.90
21627;DHT22;10975;47.872;12.972;2022-10-28T17:54:33;14.70;99.90
21627;DHT22;10975;47.872;12.972;2022-10-28T17:57:00;14.70;99.90
21627;DHT22;10975;47.872;12.972;2022-10-28T17:59:27;14.70;99.90
21627;DHT22;10975;47.872;12.972;2022-10-28T18:01:54;14.70;99.90
21627;DHT22;10975;47.872;12.972;2022-10-28T18:04:21;14.60;99.90
21627;DHT22;10975;47.872;12.972;2022-10-28T18:06:52;14.60;99.90
21627;DHT22;10975;47.872;12.972;2022-10-28T18:09:19;14.50;99.90
21627;DHT22;10975;47.872;12.972;2022-10-28T18:11:46;14.50;99.90
21627;DHT22;10975;47.872;12.972;2022-10-28T18:14:13;14.50;99.90
21627;DHT22;10975;47.872;12.972;2022-10-28T18:16:39;14.50;99.90
21627;DHT22;10975;47.872;12.972;2022-10-28T18:19:06;14.40;99.90
21627;DHT22;10975;47.872;12.972;2022-10-28T18:21:33;14.40;99.90
21627;DHT22;10975;47.872;12.972;2022-10-28T18:24:00;14.40;99.90
21627;DHT22;10975;47.872;12.972;2022-10-28T18:26:30;14.30;99.90